• Join FlightAware (Why Join?)
  • Login
  • US Flag 
Trick or treat! (Boo!!) 
01:21PM EDT


 

Airport Tracker/Info


-or-


 

Live Flight TrackerFlight Track Log ✈ ERR735 ✈ 23-Aug-2013 ✈ PAGA / GAL - PAFA / FAI

Flight Track Log - Related Links

Times and Time Zones

All times are in EDT time to prevent confusion due to time zone crossing. See the ERR735 flight status page for this flight to view local times or setup timezone preferences in your user account.

Time Position Orientation Groundspeed Altitude Reporting Facility
EDT Latitude Longitude Course Direction KTS MPH feet Rate Location/Type
04:24PM 64.7500 -156.0333 87° East 190 219 12,700  Level Anchorage Center
04:25PM 64.7500 -155.8833 90° East 210 242 13,700 1,020 Climbing Anchorage Center
04:26PM 64.7500 -156.0134 90° East  Level FlightAware Approximate
04:26PM 64.7667 -155.7333 75° East 220 253 14,800  Level Anchorage Center
04:27PM 64.7545 -155.8600 84° East  Level FlightAware Approximate
04:27PM 64.7667 -155.6000 90° East 210 242 16,000  Level Anchorage Center
04:28PM 64.7609 -155.7067 84° East  Level FlightAware Approximate
04:28PM 64.7667 -155.4667 90° East 200 230 17,700  Level Anchorage Center
04:29PM 64.7670 -155.5534 87° East  Level FlightAware Approximate
04:29PM 64.7833 -155.3500 71° East 190 219 19,100  Level Anchorage Center
04:30PM 64.7833 -155.2167 90° East 190 219 20,100 960 Climbing Anchorage Center
04:31PM 64.7833 -155.0833 90° East 210 242 21,100 1,020 Climbing Anchorage Center
04:32PM 64.7833 -154.9500 90° East 190 219 22,200 780 Climbing Anchorage Center
04:33PM 64.7833 -154.8333 90° East 200 230 22,700 360 Climbing Anchorage Center
04:34PM 64.7833 -154.6833 90° East 220 253 23,000 120 Climbing Anchorage Center
04:35PM 64.8000 -154.5333 75° East 240 276 23,000  Level Anchorage Center
04:36PM 64.8000 -154.3500 90° East 260 299 23,000  Level Anchorage Center
04:37PM 64.8000 -154.2000 90° East 240 276 23,000  Level Anchorage Center
04:38PM 64.8000 -154.0333 90° East 250 288 23,000  Level Anchorage Center
04:39PM 64.8167 -153.8500 78° East 260 299 23,000  Level Anchorage Center
04:40PM 64.8167 -153.7000 90° East 250 288 23,000  Level Anchorage Center
04:41PM 64.8167 -153.5333 90° East 250 288 23,000  Level Anchorage Center
04:42PM 64.8167 -153.3833 90° East 250 288 23,000  Level Anchorage Center
04:43PM 64.8167 -153.2167 90° East 260 299 23,000  Level Anchorage Center
04:44PM 64.8167 -153.0500 90° East 260 299 23,000  Level Anchorage Center
04:45PM 64.8333 -152.8833 77° East 240 276 23,000  Level Anchorage Center
04:46PM 64.8333 -152.7167 90° East 260 299 23,000  Level Anchorage Center
04:47PM 64.8333 -152.5500 90° East 260 299 23,000  Level Anchorage Center
04:48PM 64.8333 -152.3833 90° East 250 288 23,000  Level Anchorage Center
04:49PM 64.8333 -152.2167 90° East 250 288 23,000  Level Anchorage Center
04:50PM 64.8333 -152.0500 90° East 250 288 23,000  Level Anchorage Center
04:51PM 64.8333 -151.8833 90° East 270 311 23,000  Level Anchorage Center
04:52PM 64.8333 -151.7167 90° East 260 299 23,000  Level Anchorage Center
04:53PM 64.8333 -151.5500 90° East 250 288 23,000  Level Anchorage Center
04:54PM 64.8333 -151.3833 90° East 260 299 23,000  Level Anchorage Center
04:55PM 64.8333 -151.2167 90° East 260 299 23,000  Level Anchorage Center
04:56PM 64.8333 -151.0500 90° East 250 288 23,000  Level Anchorage Center
04:57PM 64.8333 -150.8833 90° East 250 288 23,000  Level Anchorage Center
04:58PM 64.8333 -150.7000 90° East 260 299 23,000  Level Anchorage Center
04:59PM 64.8333 -150.5333 90° East 260 299 23,000 -60 Level Anchorage Center
05:00PM 64.8333 -150.3667 90° East 250 288 22,900 -300 Descending Anchorage Center
05:01PM 64.8333 -150.2000 90° East 260 299 22,400 -720 Descending Anchorage Center
05:02PM 64.8167 -150.0167 102° East 280 322 21,500 -900 Descending Anchorage Center
05:03PM 64.8167 -149.8167 90° East 290 334 20,600 -1,080 Descending Anchorage Center
05:04PM 64.8167 -149.6333 90° East 290 334 19,400 -1,740 Descending Anchorage Center
05:05PM 64.8167 -149.4333 90° East 300 345 17,200 -2,220 Descending Anchorage Center
05:07PM 64.8158 -149.2379 94° East  Level FlightAware Approximate
05:14PM 64.8000 -148.1595 90° East  Level FlightAware Approximate
05:15PM 64.8000 -148.0053 90° East  Level FlightAware Approximate
05:16PM 64.8000 -147.8511 90° East  Level FlightAware Approximate
05:17PM 64.8000 -147.8500 90° East  Level FlightAware Approximate
05:18PM 64.8151 -147.8564 90° East  Level Estimated
05:19PM 64.8151 -147.8564 90° East  Level Estimated
05:20PM 64.8151 -147.8564 90° East  Level Estimated
05:21PM 64.8151 -147.8564 90° East  Level Estimated
05:22PM 64.8151 -147.8564 90° East  Level Estimated
05:23PM 64.8151 -147.8564 90° East  Level Estimated
05:24PM 64.8151 -147.8564 90° East  Level Estimated
05:25PM 64.8151 -147.8564 90° East  Level Estimated
05:26PM 64.8151 -147.8564 90° East  Level Estimated
05:27PM 64.8151 -147.8564 90° East  Level Estimated
05:28PM 64.8151 -147.8564 90° East  Level Estimated
05:29PM 64.8151 -147.8564 90° East  Level Estimated
05:30PM 64.8151 -147.8564 90° East  Level Estimated
05:31PM 64.8151 -147.8564 90° East  Level Estimated
05:32PM 64.8151 -147.8564 90° East  Level Estimated
05:33PM 64.8151 -147.8564 90° East  Level Estimated